createdAt,value
2018-08-11T00:15:53.493Z,99.90
2018-08-11T00:18:23.773Z,99.90
2018-08-11T00:39:45.437Z,99.90
2018-08-11T00:42:35.949Z,99.90
2018-08-11T01:20:01.753Z,99.90
2018-08-11T01:29:40.311Z,99.90
2018-08-11T01:32:35.028Z,99.90
2018-08-11T01:38:08.177Z,99.90
2018-08-11T01:47:02.397Z,99.90
2018-08-11T01:56:09.654Z,99.90
2018-08-11T02:02:06.190Z,99.90
2018-08-11T02:20:31.765Z,99.90
2018-08-11T02:23:08.706Z,99.90
2018-08-11T02:28:45.613Z,99.90
2018-08-11T03:03:48.153Z,99.90
2018-08-11T03:06:49.381Z,99.90
2018-08-11T03:09:19.598Z,99.90
2018-08-11T03:11:49.789Z,99.90
2018-08-11T03:17:43.419Z,99.90
2018-08-11T03:20:38.317Z,99.90
2018-08-11T03:23:34.691Z,99.90
2018-08-11T03:35:42.548Z,99.90
2018-08-11T03:41:19.477Z,99.90
2018-08-11T03:46:56.406Z,99.90
2018-08-11T03:55:51.530Z,99.90
2018-08-11T04:04:42.979Z,99.90
2018-08-11T04:07:13.506Z,99.90
2018-08-11T04:09:45.653Z,99.90
2018-08-11T04:15:29.697Z,99.90
2018-08-11T04:21:22.849Z,99.90
2018-08-11T04:24:07.049Z,99.90
2018-08-11T04:35:12.815Z,99.90
2018-08-11T04:37:43.967Z,99.90
2018-08-11T04:43:28.303Z,99.90
2018-08-11T04:46:00.936Z,99.90
2018-08-11T04:50:42.698Z,99.90
2018-08-11T04:53:24.402Z,99.90
2018-08-11T05:09:33.397Z,99.90
2018-08-11T05:15:21.384Z,99.90
2018-08-11T05:17:51.469Z,99.90
2018-08-11T05:20:21.573Z,99.90
2018-08-11T05:22:51.692Z,99.90
2018-08-11T05:25:23.649Z,99.90
2018-08-11T05:27:53.750Z,99.90
2018-08-11T05:30:23.872Z,99.90
2018-08-11T05:32:53.992Z,99.90
2018-08-11T05:35:24.088Z,99.90
2018-08-11T05:37:54.220Z,99.90
2018-08-11T05:40:24.335Z,99.90
2018-08-11T05:42:54.460Z,99.90
2018-08-11T05:45:24.600Z,99.90
2018-08-11T05:47:54.686Z,99.90
2018-08-11T05:50:24.776Z,99.90
2018-08-11T05:52:54.876Z,99.90
2018-08-11T05:55:24.964Z,99.90
2018-08-11T05:57:55.089Z,99.90
2018-08-11T06:00:25.198Z,99.90
2018-08-11T06:02:55.328Z,99.90
2018-08-11T06:05:25.422Z,99.90
2018-08-11T06:07:55.544Z,99.90
2018-08-11T06:10:25.712Z,99.90
2018-08-11T06:12:55.785Z,99.90
2018-08-11T06:15:25.920Z,99.90
2018-08-11T06:17:56.041Z,99.90
2018-08-11T06:20:26.166Z,99.90
2018-08-11T06:22:56.278Z,99.90
2018-08-11T06:25:26.460Z,99.90
2018-08-11T06:27:57.281Z,99.90
2018-08-11T06:30:27.445Z,99.90
2018-08-11T06:32:57.580Z,99.90
2018-08-11T06:35:27.684Z,99.90
2018-08-11T06:37:57.804Z,99.90
2018-08-11T06:40:28.001Z,99.90
2018-08-11T06:42:58.036Z,99.90
2018-08-11T06:45:28.203Z,99.90
2018-08-11T06:47:58.302Z,99.90
2018-08-11T06:50:28.424Z,99.90
2018-08-11T06:52:58.526Z,99.90
2018-08-11T06:55:29.048Z,99.90
2018-08-11T06:57:59.164Z,99.90
2018-08-11T07:00:29.277Z,99.90
2018-08-11T07:02:59.388Z,99.90
2018-08-11T07:05:29.504Z,99.90
2018-08-11T07:07:59.628Z,99.90
2018-08-11T07:10:29.797Z,99.90
2018-08-11T07:12:59.918Z,99.90
2018-08-11T07:15:30.080Z,99.90
2018-08-11T07:18:01.253Z,99.90
2018-08-11T07:20:31.368Z,99.90
2018-08-11T07:23:05.129Z,99.90
2018-08-11T07:25:35.672Z,99.90
2018-08-11T07:28:05.904Z,99.90
2018-08-11T07:30:36.026Z,99.90
2018-08-11T07:33:08.008Z,99.90
2018-08-11T07:35:38.145Z,99.90
2018-08-11T07:38:08.381Z,99.90
2018-08-11T07:40:38.496Z,99.90
2018-08-11T07:43:08.663Z,99.90
2018-08-11T07:45:38.776Z,99.90
2018-08-11T07:48:09.096Z,99.90
2018-08-11T07:50:39.234Z,99.90
2018-08-11T07:53:09.353Z,99.90
2018-08-11T07:55:39.496Z,99.90
2018-08-11T07:58:09.796Z,99.90
2018-08-11T08:00:39.900Z,99.90
2018-08-11T08:03:10.001Z,99.90
2018-08-11T08:05:40.164Z,99.90
2018-08-11T08:08:10.278Z,99.90
2018-08-11T08:10:40.400Z,99.90
2018-08-11T08:13:10.479Z,99.90
2018-08-11T08:15:40.637Z,99.90
2018-08-11T08:18:10.707Z,99.90
2018-08-11T08:20:40.992Z,99.90
2018-08-11T08:23:11.729Z,99.90
2018-08-11T08:25:41.873Z,99.90
2018-08-11T08:28:12.096Z,99.90
2018-08-11T08:30:42.185Z,99.90
2018-08-11T08:33:12.284Z,99.90
2018-08-11T08:35:42.420Z,99.90
2018-08-11T08:38:12.596Z,99.90
2018-08-11T08:40:42.710Z,99.90
2018-08-11T08:43:12.799Z,99.90
2018-08-11T08:45:42.912Z,99.90
2018-08-11T08:48:13.000Z,99.90
2018-08-11T08:50:43.076Z,99.70
2018-08-11T08:53:13.437Z,99.30
2018-08-11T08:55:43.508Z,99.50
2018-08-11T08:58:13.692Z,99.90
2018-08-11T09:00:43.926Z,99.90
2018-08-11T09:03:14.040Z,99.90
2018-08-11T09:05:44.210Z,99.70
2018-08-11T09:08:14.341Z,99.90
2018-08-11T09:10:44.787Z,98.60
2018-08-11T09:13:14.912Z,98.50
2018-08-11T09:15:45.357Z,99.20
2018-08-11T09:18:16.020Z,97.90
2018-08-11T09:20:46.212Z,97.50
2018-08-11T09:23:16.568Z,98.20
2018-08-11T09:25:46.820Z,97.90
2018-08-11T09:28:16.978Z,98.30
2018-08-11T09:30:47.088Z,97.70
2018-08-11T09:33:17.375Z,96.30
2018-08-11T09:35:48.006Z,97.20
2018-08-11T09:38:18.154Z,96.90
2018-08-11T09:40:48.325Z,97.90
2018-08-11T09:43:18.406Z,97.10
2018-08-11T09:45:48.773Z,97.70
2018-08-11T09:48:18.833Z,96.60
2018-08-11T09:50:49.228Z,96.50
2018-08-11T09:53:19.316Z,97.00
2018-08-11T09:55:50.746Z,96.30
2018-08-11T09:58:21.250Z,94.90
2018-08-11T10:00:55.819Z,94.40
2018-08-11T10:03:26.963Z,93.10
2018-08-11T10:05:57.229Z,92.50
2018-08-11T10:08:27.399Z,92.20
2018-08-11T10:10:57.609Z,92.40
2018-08-11T10:13:28.607Z,91.60
2018-08-11T10:15:58.780Z,91.50
2018-08-11T10:18:29.209Z,91.50
2018-08-11T10:20:59.892Z,91.60
2018-08-11T10:23:30.153Z,91.60
2018-08-11T10:26:00.309Z,92.20
2018-08-11T10:28:30.439Z,91.70
2018-08-11T10:31:00.709Z,91.10
2018-08-11T10:33:30.792Z,91.10
2018-08-11T10:36:01.033Z,91.40
2018-08-11T10:38:31.164Z,91.30
2018-08-11T10:41:01.289Z,91.80
2018-08-11T10:43:31.386Z,91.30
2018-08-11T10:46:01.468Z,91.10
2018-08-11T10:48:31.593Z,90.80
2018-08-11T10:51:01.699Z,90.50
2018-08-11T10:53:31.813Z,90.50
2018-08-11T10:56:01.922Z,90.10
2018-08-11T10:58:32.024Z,91.50
2018-08-11T11:01:02.130Z,88.30
2018-08-11T11:03:32.317Z,86.40
2018-08-11T11:06:02.395Z,86.20
2018-08-11T11:08:32.635Z,87.90
2018-08-11T11:11:02.660Z,90.80
2018-08-11T11:13:32.794Z,88.10
2018-08-11T11:16:02.886Z,88.60
2018-08-11T11:18:33.040Z,87.00
2018-08-11T11:21:03.165Z,85.70
2018-08-11T11:23:33.247Z,87.40
2018-08-11T11:26:03.371Z,86.60
2018-08-11T11:28:33.465Z,90.20
2018-08-11T11:31:03.617Z,89.30
2018-08-11T11:33:33.740Z,87.40
2018-08-11T11:36:03.956Z,81.90
2018-08-11T11:38:34.072Z,83.70
2018-08-11T11:41:04.204Z,80.30
2018-08-11T11:43:34.336Z,81.60
2018-08-11T11:46:04.472Z,82.20
2018-08-11T11:48:34.623Z,78.70
2018-08-11T11:51:04.712Z,80.60
2018-08-11T11:53:34.815Z,83.90
2018-08-11T11:56:05.605Z,82.30
2018-08-11T11:58:35.797Z,81.30
2018-08-11T12:01:05.996Z,79.10
2018-08-11T12:03:36.293Z,82.00
2018-08-11T12:06:06.372Z,82.80
2018-08-11T12:08:36.496Z,81.40
2018-08-11T12:11:07.384Z,80.60
2018-08-11T12:13:37.540Z,81.60
2018-08-11T12:16:07.712Z,79.00
2018-08-11T12:18:37.884Z,78.60
2018-08-11T12:21:08.092Z,79.60
2018-08-11T12:23:38.257Z,79.50
2018-08-11T12:26:08.416Z,79.10
2018-08-11T12:28:38.675Z,78.30
2018-08-11T12:31:08.814Z,79.50
2018-08-11T12:33:38.928Z,79.20
2018-08-11T12:36:09.192Z,80.60
2018-08-11T12:38:39.327Z,81.00
2018-08-11T12:41:09.415Z,81.90
2018-08-11T12:43:39.535Z,80.10
2018-08-11T12:46:09.711Z,80.70
2018-08-11T12:48:39.792Z,81.40
2018-08-11T12:51:10.544Z,81.20
2018-08-11T12:53:40.627Z,81.50
2018-08-11T12:56:10.728Z,84.20
2018-08-11T12:58:40.884Z,83.20
2018-08-11T13:01:11.028Z,80.90
2018-08-11T13:03:41.120Z,80.00
2018-08-11T13:06:11.261Z,82.40
2018-08-11T13:08:41.352Z,81.80
2018-08-11T13:11:11.469Z,83.10
2018-08-11T13:13:41.566Z,80.10
2018-08-11T13:16:11.685Z,80.30
2018-08-11T13:18:41.775Z,79.30
2018-08-11T13:21:11.860Z,80.30
2018-08-11T13:23:41.968Z,81.50
2018-08-11T13:26:12.081Z,82.50
2018-08-11T13:28:42.258Z,81.10
2018-08-11T13:31:12.373Z,81.40
2018-08-11T13:33:42.448Z,84.20
2018-08-11T13:36:12.552Z,84.30
2018-08-11T13:38:42.699Z,83.70
2018-08-11T13:41:12.744Z,85.80
2018-08-11T13:43:42.828Z,86.50
2018-08-11T13:46:12.956Z,86.40
2018-08-11T13:48:43.075Z,83.10
2018-08-11T13:51:13.333Z,80.00
2018-08-11T13:53:43.510Z,81.70
2018-08-11T13:56:13.900Z,78.20
2018-08-11T13:58:44.008Z,80.90
2018-08-11T14:01:14.136Z,77.50
2018-08-11T14:03:44.201Z,75.40
2018-08-11T14:06:14.317Z,76.10
2018-08-11T14:08:44.400Z,76.40
2018-08-11T14:11:14.624Z,76.50
2018-08-11T14:13:44.965Z,75.10
2018-08-11T14:16:15.184Z,73.90
2018-08-11T14:18:45.256Z,74.70
2018-08-11T14:21:15.368Z,70.30
2018-08-11T14:23:45.451Z,69.40
2018-08-11T14:26:15.546Z,70.10
2018-08-11T14:28:45.706Z,70.10
2018-08-11T14:31:15.833Z,70.30
2018-08-11T14:33:46.006Z,69.90
2018-08-11T14:36:16.104Z,67.70
2018-08-11T14:38:46.241Z,69.40
2018-08-11T14:41:16.375Z,71.00
2018-08-11T14:43:46.479Z,66.90
2018-08-11T14:46:16.632Z,66.40
2018-08-11T14:48:46.720Z,66.90
2018-08-11T14:51:16.832Z,65.70
2018-08-11T14:53:47.008Z,66.80
2018-08-11T14:56:17.174Z,66.50
2018-08-11T14:58:47.434Z,66.10
2018-08-11T15:01:17.792Z,67.70
2018-08-11T15:03:49.087Z,67.30
2018-08-11T15:06:19.380Z,68.40
2018-08-11T15:08:49.499Z,69.20
2018-08-11T15:11:19.669Z,69.50
2018-08-11T15:13:49.801Z,69.00
2018-08-11T15:16:19.991Z,73.50
2018-08-11T15:18:50.360Z,74.40
2018-08-11T15:21:20.492Z,74.50
2018-08-11T15:23:50.588Z,73.10
2018-08-11T15:26:20.712Z,72.70
2018-08-11T15:28:50.804Z,72.90
2018-08-11T15:31:20.888Z,80.80
2018-08-11T15:33:50.984Z,82.40
2018-08-11T15:36:21.103Z,84.00
2018-08-11T15:38:51.464Z,86.40
2018-08-11T15:41:21.693Z,87.60
2018-08-11T15:43:51.768Z,90.00
2018-08-11T15:46:22.065Z,90.50
2018-08-11T15:48:52.463Z,90.90
2018-08-11T15:51:22.536Z,91.00
2018-08-11T15:53:53.024Z,91.20
2018-08-11T15:56:23.142Z,91.30
2018-08-11T15:58:53.408Z,91.60
2018-08-11T16:01:23.904Z,92.40
2018-08-11T16:03:54.032Z,92.80
2018-08-11T16:06:24.117Z,92.80
2018-08-11T16:08:54.233Z,92.50
2018-08-11T16:11:24.352Z,91.90
2018-08-11T16:13:54.456Z,92.10
2018-08-11T16:16:24.533Z,91.20
2018-08-11T16:18:54.888Z,89.60
2018-08-11T16:21:24.988Z,89.70
2018-08-11T16:23:55.109Z,88.90
2018-08-11T16:26:25.176Z,89.20
2018-08-11T16:28:55.324Z,88.70
2018-08-11T16:31:25.480Z,89.10
2018-08-11T16:33:55.872Z,89.50
2018-08-11T16:36:26.004Z,90.30
2018-08-11T16:38:56.144Z,90.20
2018-08-11T16:41:26.437Z,89.80
2018-08-11T16:43:56.543Z,90.10
2018-08-11T16:46:26.788Z,90.00
2018-08-11T16:48:56.864Z,90.10
2018-08-11T16:51:26.973Z,90.30
2018-08-11T16:53:57.813Z,90.00
2018-08-11T16:56:27.848Z,90.20
2018-08-11T16:58:57.931Z,90.50
2018-08-11T17:01:28.025Z,90.60
2018-08-11T17:03:58.116Z,91.50
2018-08-11T17:06:28.253Z,92.10
2018-08-11T17:08:58.341Z,92.60
2018-08-11T17:11:28.463Z,93.10
2018-08-11T17:13:58.548Z,93.40
2018-08-11T17:16:28.686Z,93.40
2018-08-11T17:18:58.767Z,93.70
2018-08-11T17:21:28.908Z,94.00
2018-08-11T17:23:59.285Z,94.20
2018-08-11T17:26:29.408Z,94.50
2018-08-11T17:28:59.632Z,94.60
2018-08-11T17:31:29.724Z,95.20
2018-08-11T17:33:59.890Z,95.40
2018-08-11T17:36:29.965Z,95.70
2018-08-11T17:39:00.105Z,95.80
2018-08-11T17:41:30.191Z,95.60
2018-08-11T17:44:00.504Z,95.80
2018-08-11T17:46:30.615Z,95.80
2018-08-11T17:49:00.856Z,96.00
2018-08-11T17:51:30.972Z,96.30
2018-08-11T17:54:01.159Z,96.50
2018-08-11T17:56:31.339Z,96.70
2018-08-11T17:59:01.451Z,97.00
2018-08-11T18:01:31.608Z,97.30
2018-08-11T18:04:01.717Z,97.30
2018-08-11T18:06:31.821Z,97.40
2018-08-11T18:09:01.894Z,97.30
2018-08-11T18:11:32.029Z,97.70
2018-08-11T18:14:02.179Z,97.80
2018-08-11T18:16:32.284Z,97.70
2018-08-11T18:19:02.515Z,97.80
2018-08-11T18:21:32.646Z,97.80
2018-08-11T18:24:02.752Z,97.80
2018-08-11T18:26:33.143Z,97.90
2018-08-11T18:29:03.361Z,98.10
2018-08-11T18:31:33.556Z,98.40
2018-08-11T18:34:03.688Z,98.80
2018-08-11T18:36:33.944Z,99.00
2018-08-11T18:39:06.244Z,99.10
2018-08-11T18:41:36.352Z,99.20
2018-08-11T18:44:06.504Z,99.30
2018-08-11T18:46:36.895Z,99.30
2018-08-11T18:49:07.317Z,99.50
2018-08-11T18:51:37.562Z,99.70
2018-08-11T18:54:07.791Z,99.60
2018-08-11T18:56:38.020Z,99.70
2018-08-11T18:59:08.203Z,99.90
2018-08-11T19:01:38.417Z,99.90
2018-08-11T19:04:08.748Z,99.90
2018-08-11T19:06:39.096Z,99.90
2018-08-11T19:09:12.908Z,99.90
2018-08-11T19:11:44.212Z,99.90
2018-08-11T19:14:14.528Z,99.90
2018-08-11T19:16:44.636Z,99.90
2018-08-11T19:19:14.790Z,99.90
2018-08-11T19:21:44.993Z,99.90
2018-08-11T19:24:15.180Z,99.90
2018-08-11T19:26:45.445Z,99.90
2018-08-11T19:29:15.652Z,99.90
2018-08-11T19:31:45.898Z,99.90
2018-08-11T19:34:17.256Z,99.90
2018-08-11T19:36:47.425Z,99.90
2018-08-11T19:39:17.537Z,99.90
2018-08-11T19:41:47.721Z,99.90
2018-08-11T19:44:17.841Z,99.90
2018-08-11T19:46:47.987Z,99.90
2018-08-11T19:49:18.108Z,99.90
2018-08-11T19:51:48.599Z,99.90
2018-08-11T19:54:18.763Z,99.90
2018-08-11T19:56:48.892Z,99.90
2018-08-11T19:59:19.043Z,99.90
2018-08-11T20:01:49.308Z,99.90
2018-08-11T20:04:19.525Z,99.90
2018-08-11T20:06:49.621Z,99.90
2018-08-11T20:09:19.857Z,99.90
2018-08-11T20:11:49.968Z,99.90
2018-08-11T20:14:20.080Z,99.90
2018-08-11T20:16:50.200Z,99.90
2018-08-11T20:19:21.049Z,99.90
2018-08-11T20:21:51.141Z,99.90
2018-08-11T20:24:21.508Z,99.80
2018-08-11T20:26:51.669Z,99.50
2018-08-11T20:29:21.922Z,99.40
2018-08-11T20:31:52.148Z,99.40
2018-08-11T20:34:22.292Z,99.60
2018-08-11T20:36:52.584Z,99.10
2018-08-11T20:39:22.856Z,99.00
2018-08-11T20:41:53.009Z,98.80
2018-08-11T20:44:23.128Z,98.50
2018-08-11T20:46:53.228Z,98.50
2018-08-11T20:49:23.336Z,99.30
2018-08-11T20:51:53.529Z,99.40
2018-08-11T20:54:23.920Z,99.60
2018-08-11T20:56:54.048Z,99.90
2018-08-11T20:59:24.191Z,99.90
2018-08-11T21:01:54.410Z,99.90
2018-08-11T21:04:24.520Z,99.90
2018-08-11T21:06:54.687Z,99.90
2018-08-11T21:09:24.816Z,99.90
2018-08-11T21:11:54.987Z,99.90
2018-08-11T21:14:25.136Z,99.90
2018-08-11T21:16:55.392Z,99.90
2018-08-11T21:19:25.544Z,99.90
2018-08-11T21:21:55.640Z,99.90
2018-08-11T21:24:25.793Z,99.70
2018-08-11T21:26:55.957Z,99.90
2018-08-11T21:29:26.079Z,99.90
2018-08-11T21:31:56.257Z,99.90
2018-08-11T21:34:26.348Z,99.90
2018-08-11T21:36:56.524Z,99.90
2018-08-11T21:39:26.573Z,99.90
2018-08-11T21:41:56.720Z,99.90
2018-08-11T21:44:26.861Z,99.90
2018-08-11T21:46:56.972Z,99.90
2018-08-11T21:49:27.145Z,99.90
2018-08-11T21:51:57.276Z,99.90
2018-08-11T21:54:27.368Z,99.90
2018-08-11T21:56:57.532Z,99.90
2018-08-11T21:59:27.656Z,99.90
2018-08-11T22:01:57.868Z,99.90
2018-08-11T22:04:32.972Z,99.90
2018-08-11T22:07:06.169Z,99.90
2018-08-11T22:09:41.833Z,99.90
2018-08-11T22:12:12.317Z,99.90
2018-08-11T22:14:42.464Z,99.90
2018-08-11T22:17:12.583Z,99.90
2018-08-11T22:19:42.716Z,99.90
2018-08-11T22:22:12.828Z,99.90
2018-08-11T22:24:42.928Z,99.90
2018-08-11T22:27:13.056Z,99.90
2018-08-11T22:29:43.148Z,99.90
2018-08-11T22:32:13.300Z,99.90
2018-08-11T22:34:43.412Z,99.90
2018-08-11T22:37:13.541Z,99.90
2018-08-11T22:39:43.661Z,99.90
2018-08-11T22:42:13.783Z,99.90
2018-08-11T22:44:43.896Z,99.90
2018-08-11T22:47:14.013Z,99.90
2018-08-11T22:49:44.101Z,99.90
2018-08-11T22:52:14.204Z,99.90
2018-08-11T22:54:44.325Z,99.90
2018-08-11T22:57:14.408Z,99.90
2018-08-11T22:59:44.564Z,99.90
2018-08-11T23:02:14.669Z,99.90
2018-08-11T23:04:45.008Z,99.90
2018-08-11T23:07:15.089Z,99.90
2018-08-11T23:09:45.224Z,99.90
2018-08-11T23:12:15.363Z,99.90
2018-08-11T23:14:45.481Z,99.90
2018-08-11T23:17:15.604Z,99.90
2018-08-11T23:19:45.761Z,99.90
2018-08-11T23:22:15.876Z,99.90
2018-08-11T23:24:45.983Z,99.90
2018-08-11T23:27:16.095Z,99.90
2018-08-11T23:29:46.252Z,99.90
2018-08-11T23:32:16.410Z,99.90
2018-08-11T23:34:46.517Z,99.90
2018-08-11T23:37:16.623Z,99.90
2018-08-11T23:39:46.731Z,99.90
2018-08-11T23:42:16.843Z,99.90
2018-08-11T23:44:46.936Z,99.90
2018-08-11T23:47:17.015Z,99.90
2018-08-11T23:49:47.148Z,99.90
2018-08-11T23:52:17.356Z,99.90
2018-08-11T23:54:47.474Z,99.90
2018-08-11T23:57:17.616Z,99.90
2018-08-11T23:59:47.755Z,99.90
